createdAt,value
2022-08-22T00:00:55.674Z,469.5
2022-08-22T00:02:39.346Z,468.8
2022-08-22T00:04:23.031Z,465.5
2022-08-22T00:06:06.723Z,465.1
2022-08-22T00:07:50.463Z,468.9
2022-08-22T00:09:34.140Z,472.4
2022-08-22T00:11:17.833Z,474.5
2022-08-22T00:13:01.531Z,473.5
2022-08-22T00:14:45.234Z,471.4
2022-08-22T00:16:28.941Z,468.9
2022-08-22T00:18:12.636Z,466.4
2022-08-22T00:19:56.346Z,467.5
2022-08-22T00:21:40.041Z,463.8
2022-08-22T00:23:23.760Z,464.6
2022-08-22T00:25:07.463Z,464.6
2022-08-22T00:26:51.158Z,465.4
2022-08-22T00:28:34.887Z,464.9
2022-08-22T00:30:18.569Z,467.8
2022-08-22T00:32:02.267Z,467.6
2022-08-22T00:33:45.951Z,467.6
2022-08-22T00:35:29.674Z,468.8
2022-08-22T00:37:13.364Z,469.1
2022-08-22T00:38:57.061Z,471.5
2022-08-22T00:40:40.770Z,472.1
2022-08-22T00:42:24.472Z,472.2
2022-08-22T00:44:08.156Z,474.3
2022-08-22T00:45:51.871Z,478.8
2022-08-22T00:47:35.583Z,481.1
2022-08-22T00:49:19.261Z,479.8
2022-08-22T00:51:02.978Z,480.6
2022-08-22T00:52:46.675Z,480.8
2022-08-22T00:54:30.420Z,482.5
2022-08-22T00:56:14.089Z,481
2022-08-22T00:57:57.781Z,481.6
2022-08-22T00:59:41.484Z,481.7
2022-08-22T01:01:25.181Z,479.9
2022-08-22T01:03:08.885Z,476.3
2022-08-22T01:04:52.591Z,476.2
2022-08-22T01:06:36.316Z,476.8
2022-08-22T01:08:19.993Z,480.5
2022-08-22T01:10:03.681Z,483.2
2022-08-22T01:11:47.375Z,486.1
2022-08-22T01:13:31.089Z,488.6
2022-08-22T01:15:14.796Z,488.7
2022-08-22T01:16:58.489Z,486.6
2022-08-22T01:18:42.193Z,486.9
2022-08-22T01:20:25.896Z,487
2022-08-22T01:22:09.598Z,484.3
2022-08-22T01:23:53.303Z,482
2022-08-22T01:25:37.048Z,481.2
2022-08-22T01:27:20.684Z,481.9
2022-08-22T01:29:04.421Z,478.6
2022-08-22T01:30:48.094Z,477.6
2022-08-22T01:32:31.816Z,476.9
2022-08-22T01:34:15.495Z,477.1
2022-08-22T01:35:59.199Z,477
2022-08-22T01:37:42.915Z,472.7
2022-08-22T01:39:26.605Z,474.4
2022-08-22T01:41:10.320Z,475.6
2022-08-22T01:42:54.019Z,478.6
2022-08-22T01:44:37.711Z,478.4
2022-08-22T01:46:21.426Z,474.7
2022-08-22T01:48:05.128Z,475
2022-08-22T01:49:48.823Z,474.8
2022-08-22T01:51:32.520Z,474.7
2022-08-22T01:53:16.214Z,474.5
2022-08-22T01:54:59.930Z,474.7
2022-08-22T01:56:43.627Z,472
2022-08-22T01:58:27.352Z,473
2022-08-22T02:00:11.035Z,474.4
2022-08-22T02:01:54.751Z,472.4
2022-08-22T02:03:38.451Z,473.5
2022-08-22T02:05:22.141Z,475.4
2022-08-22T02:07:05.844Z,477.4
2022-08-22T02:08:49.535Z,475
2022-08-22T02:10:33.273Z,475
2022-08-22T02:12:16.940Z,476.9
2022-08-22T02:14:00.659Z,476.6
2022-08-22T02:15:44.356Z,478.6
2022-08-22T02:17:28.061Z,480.1
2022-08-22T02:19:11.759Z,476.3
2022-08-22T02:20:55.458Z,476.3
2022-08-22T02:22:39.167Z,478.2
2022-08-22T02:24:22.862Z,477.4
2022-08-22T02:26:06.568Z,476.3
2022-08-22T02:27:50.267Z,473.6
2022-08-22T02:29:33.953Z,474.3
2022-08-22T02:31:17.661Z,477.1
2022-08-22T02:33:01.375Z,479.1
2022-08-22T02:34:45.089Z,485.1
2022-08-22T02:36:28.780Z,486.8
2022-08-22T02:38:12.492Z,488.2
2022-08-22T02:39:56.182Z,490.8
2022-08-22T02:41:39.879Z,493.6
2022-08-22T02:43:23.598Z,491.5
2022-08-22T02:45:07.293Z,492.3
2022-08-22T02:46:50.985Z,495.1
2022-08-22T02:48:34.698Z,497.7
2022-08-22T02:50:18.397Z,500.6
2022-08-22T02:52:02.095Z,499.9
2022-08-22T02:53:45.789Z,500.2
2022-08-22T02:55:29.496Z,500.9
2022-08-22T02:57:13.211Z,498.1
2022-08-22T02:58:56.901Z,497.9
2022-08-22T03:00:40.609Z,498
2022-08-22T03:02:24.318Z,495.8
2022-08-22T03:04:08.013Z,493.7
2022-08-22T03:05:51.694Z,490.1
2022-08-22T03:07:35.413Z,487
2022-08-22T03:09:19.108Z,483.9
2022-08-22T03:11:02.819Z,481.6
2022-08-22T03:12:46.510Z,478.1
2022-08-22T03:14:30.220Z,476.2
2022-08-22T03:16:13.920Z,476.2
2022-08-22T03:17:57.629Z,475.3
2022-08-22T03:19:41.324Z,475.3
2022-08-22T03:23:08.735Z,483.8
2022-08-22T03:24:52.436Z,485.8
2022-08-22T03:26:36.145Z,485.7
2022-08-22T03:28:19.860Z,488.8
2022-08-22T03:30:03.535Z,488.5
2022-08-22T03:31:47.239Z,487.4
2022-08-22T03:33:30.939Z,485.9
2022-08-22T03:35:14.654Z,486.9
2022-08-22T03:36:58.354Z,487.2
2022-08-22T03:38:42.038Z,487.1
2022-08-22T03:40:25.759Z,487.2
2022-08-22T03:42:09.460Z,488
2022-08-22T03:43:53.152Z,488.9
2022-08-22T03:45:36.854Z,486.9
2022-08-22T03:47:20.549Z,488.5
2022-08-22T03:49:04.251Z,491
2022-08-22T03:50:47.969Z,491.8
2022-08-22T03:52:31.653Z,491.7
2022-08-22T03:54:15.374Z,493.4
2022-08-22T03:55:59.071Z,493.7
2022-08-22T03:57:42.776Z,496.8
2022-08-22T03:59:26.484Z,495.9
2022-08-22T04:01:10.251Z,497.7
2022-08-22T04:02:53.880Z,499.2
2022-08-22T04:04:37.580Z,500.7
2022-08-22T04:06:21.270Z,503.1
2022-08-22T04:08:04.972Z,505.4
2022-08-22T04:09:48.677Z,501.8
2022-08-22T04:11:32.384Z,500.2
2022-08-22T04:13:16.072Z,498.6
2022-08-22T04:14:59.783Z,498.1
2022-08-22T04:16:43.491Z,495.5
2022-08-22T04:18:27.205Z,492.7
2022-08-22T04:20:10.900Z,492.1
2022-08-22T04:21:54.582Z,492.7
2022-08-22T04:23:38.297Z,496.6
2022-08-22T04:25:21.995Z,495.5
2022-08-22T04:27:05.693Z,498.3
2022-08-22T04:28:49.397Z,498.7
2022-08-22T04:30:33.113Z,495.3
2022-08-22T04:32:16.806Z,491.2
2022-08-22T04:34:00.522Z,490.8
2022-08-22T04:35:44.224Z,491.8
2022-08-22T04:37:27.911Z,496.9
2022-08-22T04:39:11.608Z,499.5
2022-08-22T04:40:55.317Z,499.7
2022-08-22T04:42:39.023Z,500
2022-08-22T04:44:22.715Z,499.3
2022-08-22T04:46:06.408Z,495.8
2022-08-22T04:47:50.128Z,496
2022-08-22T04:49:33.819Z,494.9
2022-08-22T04:51:17.535Z,491.8
2022-08-22T04:53:01.239Z,489.4
2022-08-22T04:54:44.932Z,486.8
2022-08-22T04:56:28.652Z,484.6
2022-08-22T04:58:12.342Z,482.8
2022-08-22T04:59:56.038Z,481.2
2022-08-22T05:01:39.734Z,479.5
2022-08-22T05:03:23.477Z,482.1
2022-08-22T05:05:07.154Z,484.2
2022-08-22T05:06:50.853Z,487.5
2022-08-22T05:08:34.555Z,488.2
2022-08-22T05:10:18.258Z,487.2
2022-08-22T05:12:01.955Z,486.7
2022-08-22T05:13:45.679Z,485.4
2022-08-22T05:15:29.354Z,485.6
2022-08-22T05:17:13.050Z,486.1
2022-08-22T05:18:56.766Z,485.8
2022-08-22T05:20:40.474Z,484.6
2022-08-22T05:22:24.168Z,484.7
2022-08-22T05:24:07.861Z,483.9
2022-08-22T05:25:51.568Z,483.5
2022-08-22T05:27:35.327Z,483.1
2022-08-22T05:29:18.997Z,478.5
2022-08-22T05:31:02.679Z,478.9
2022-08-22T05:32:46.376Z,482
2022-08-22T05:34:30.079Z,486.4
2022-08-22T05:36:13.799Z,489.4
2022-08-22T05:37:57.469Z,491.5
2022-08-22T05:39:41.218Z,491.3
2022-08-22T05:41:24.879Z,494.1
2022-08-22T05:43:08.594Z,498.3
2022-08-22T05:44:52.285Z,500
2022-08-22T05:46:35.979Z,504
2022-08-22T05:48:19.682Z,505.9
2022-08-22T05:50:03.385Z,507
2022-08-22T05:51:47.075Z,509.3
2022-08-22T05:53:30.794Z,517.6
2022-08-22T05:55:14.501Z,527.2
2022-08-22T05:56:58.204Z,536.8
2022-08-22T05:58:41.914Z,535.1
2022-08-22T06:00:25.599Z,535.2
2022-08-22T06:02:09.304Z,534.2
2022-08-22T06:03:53.010Z,531
2022-08-22T06:05:36.723Z,533.9
2022-08-22T06:07:20.412Z,540.9
2022-08-22T06:09:04.113Z,548.6
2022-08-22T06:10:47.805Z,572.6
2022-08-22T06:12:31.491Z,579.7
2022-08-22T06:14:15.218Z,581.5
2022-08-22T06:15:58.900Z,581.2
2022-08-22T06:17:42.614Z,582
2022-08-22T06:19:26.312Z,589.8
2022-08-22T06:21:10.001Z,597.2
2022-08-22T06:22:53.717Z,600.8
2022-08-22T06:24:37.420Z,589.2
2022-08-22T06:26:21.111Z,509.9
2022-08-22T06:28:04.815Z,492
2022-08-22T06:29:48.503Z,517.3
2022-08-22T06:31:32.216Z,490.7
2022-08-22T06:33:15.897Z,497.4
2022-08-22T06:34:59.607Z,504.2
2022-08-22T06:36:43.308Z,479.6
2022-08-22T06:38:27.022Z,500.3
2022-08-22T06:40:10.702Z,514.7
2022-08-22T06:41:54.405Z,527.8
2022-08-22T06:43:38.111Z,542.3
2022-08-22T06:45:21.826Z,550.7
2022-08-22T06:47:05.509Z,552.1
2022-08-22T06:48:49.220Z,551.4
2022-08-22T06:50:32.916Z,552.1
2022-08-22T06:52:16.630Z,555.8
2022-08-22T06:54:00.323Z,555.5
2022-08-22T06:55:44.024Z,546.8
2022-08-22T06:57:27.763Z,539.3
2022-08-22T06:59:11.439Z,540.4
2022-08-22T07:00:55.150Z,543.9
2022-08-22T07:02:38.855Z,541.6
2022-08-22T07:04:22.540Z,539.2
2022-08-22T07:07:49.962Z,531.6
2022-08-22T07:09:33.666Z,528.2
2022-08-22T07:11:17.366Z,532.8
2022-08-22T07:13:01.058Z,547.8
2022-08-22T07:14:44.776Z,554.8
2022-08-22T07:16:28.456Z,552
2022-08-22T07:18:12.160Z,545.4
2022-08-22T07:19:55.864Z,542.9
2022-08-22T07:21:39.575Z,536.2
2022-08-22T07:23:23.274Z,528.4
2022-08-22T07:25:06.978Z,520.4
2022-08-22T07:26:50.664Z,519.1
2022-08-22T07:28:34.390Z,521.3
2022-08-22T07:30:18.091Z,519.5
2022-08-22T07:32:01.779Z,517.4
2022-08-22T07:33:45.507Z,520.4
2022-08-22T07:35:29.218Z,526.1
2022-08-22T07:37:12.890Z,531.9
2022-08-22T07:38:56.612Z,540.3
2022-08-22T07:40:40.304Z,550
2022-08-22T07:42:24.027Z,553.9
2022-08-22T07:44:07.704Z,555.1
2022-08-22T07:45:51.421Z,559.2
2022-08-22T07:47:35.125Z,563.2
2022-08-22T07:49:18.832Z,566.8
2022-08-22T07:51:02.524Z,572.5
2022-08-22T07:52:46.233Z,568.7
2022-08-22T07:54:29.927Z,564.1
2022-08-22T07:56:13.637Z,559.8
2022-08-22T07:57:57.351Z,556.8
2022-08-22T07:59:41.048Z,553.5
2022-08-22T08:01:24.789Z,554.2
2022-08-22T08:04:52.157Z,564.6
2022-08-22T08:06:35.873Z,569.9
2022-08-22T08:08:19.575Z,575.2
2022-08-22T08:10:03.273Z,582.1
2022-08-22T08:11:46.993Z,587.2
2022-08-22T08:13:30.664Z,591.9
2022-08-22T08:15:14.372Z,596.5
2022-08-22T08:16:58.059Z,596.5
2022-08-22T08:18:41.814Z,600.1
2022-08-22T08:20:25.467Z,599.2
2022-08-22T08:22:09.200Z,596.6
2022-08-22T08:23:52.858Z,591.4
2022-08-22T08:25:36.598Z,571.8
2022-08-22T08:27:20.271Z,554
2022-08-22T08:29:03.997Z,547.4
2022-08-22T08:30:47.677Z,543.4
2022-08-22T08:32:31.358Z,533.6
2022-08-22T08:34:15.069Z,526.2
2022-08-22T08:35:58.772Z,521.4
2022-08-22T08:37:42.466Z,518.1
2022-08-22T08:39:26.174Z,513.4
2022-08-22T08:41:09.881Z,506.8
2022-08-22T08:42:53.576Z,499.8
2022-08-22T08:44:37.274Z,491.8
2022-08-22T08:46:20.976Z,497.6
2022-08-22T08:48:04.695Z,534.8
2022-08-22T08:49:48.377Z,546.7
2022-08-22T08:51:32.090Z,538.2
2022-08-22T08:53:15.814Z,536.3
2022-08-22T08:54:59.514Z,536.7
2022-08-22T08:56:43.206Z,539.8
2022-08-22T08:58:26.898Z,542.2
2022-08-22T09:00:11.150Z,546.6
2022-08-22T09:01:54.305Z,551.3
2022-08-22T09:03:38.015Z,556.4
2022-08-22T09:05:21.744Z,555.9
2022-08-22T09:07:05.424Z,550.9
2022-08-22T09:08:49.127Z,545.2
2022-08-22T09:10:32.932Z,541.4
2022-08-22T09:12:16.540Z,544.5
2022-08-22T09:14:00.257Z,545.8
2022-08-22T09:15:43.919Z,551.3
2022-08-22T09:17:27.610Z,553.4
2022-08-22T09:19:11.325Z,554.4
2022-08-22T09:20:55.057Z,549.4
2022-08-22T09:22:38.700Z,549.6
2022-08-22T09:24:22.412Z,563.1
2022-08-22T09:26:06.105Z,575.6
2022-08-22T09:27:49.838Z,584
2022-08-22T09:29:33.519Z,584.4
2022-08-22T09:31:17.212Z,580.7
2022-08-22T09:33:00.917Z,572.4
2022-08-22T09:34:44.643Z,562.9
2022-08-22T09:36:28.354Z,554.2
2022-08-22T09:38:12.012Z,554.8
2022-08-22T09:39:55.709Z,554.5
2022-08-22T09:41:39.416Z,562.7
2022-08-22T09:43:23.141Z,563.7
2022-08-22T09:45:06.826Z,560.9
2022-08-22T09:46:50.541Z,560.2
2022-08-22T09:48:34.251Z,551.2
2022-08-22T09:50:17.947Z,547.2
2022-08-22T09:52:01.625Z,543.5
2022-08-22T09:53:45.330Z,542.3
2022-08-22T09:55:29.027Z,524.3
2022-08-22T09:57:12.743Z,501.5
2022-08-22T09:58:56.463Z,488.8
2022-08-22T10:00:40.242Z,478.7
2022-08-22T10:02:23.852Z,477.6
2022-08-22T10:04:07.552Z,474.5
2022-08-22T10:05:51.292Z,472.8
2022-08-22T10:07:34.946Z,478.6
2022-08-22T10:09:18.661Z,482.8
2022-08-22T10:11:02.389Z,477.8
2022-08-22T10:12:46.065Z,474.3
2022-08-22T10:14:29.811Z,472.3
2022-08-22T10:16:13.510Z,469.4
2022-08-22T10:17:57.154Z,467
2022-08-22T10:19:40.878Z,463.9
2022-08-22T10:21:24.604Z,463.1
2022-08-22T10:23:08.262Z,474.3
2022-08-22T10:24:51.985Z,487.4
2022-08-22T10:26:35.690Z,492
2022-08-22T10:28:19.343Z,497.5
2022-08-22T10:30:03.077Z,500.9
2022-08-22T10:31:46.751Z,500
2022-08-22T10:33:30.459Z,500.7
2022-08-22T10:35:14.189Z,511.3
2022-08-22T10:36:57.866Z,519.2
2022-08-22T10:38:41.599Z,522.5
2022-08-22T10:40:25.270Z,509.5
2022-08-22T10:42:08.981Z,470.5
2022-08-22T10:43:52.670Z,463.5
2022-08-22T10:45:36.373Z,462.1
2022-08-22T10:47:20.106Z,464.1
2022-08-22T10:49:03.764Z,461.4
2022-08-22T10:50:47.482Z,458.9
2022-08-22T10:52:31.280Z,460
2022-08-22T10:54:14.896Z,459.2
2022-08-22T10:55:59.638Z,445.2
2022-08-22T10:57:42.290Z,437.5
2022-08-22T10:59:25.999Z,435
2022-08-22T11:01:09.690Z,431.3
2022-08-22T11:02:53.415Z,432.9
2022-08-22T11:04:37.119Z,433.3
2022-08-22T11:06:20.813Z,429
2022-08-22T11:08:04.522Z,423.3
2022-08-22T11:09:48.222Z,420.7
2022-08-22T11:11:31.913Z,415.3
2022-08-22T11:13:15.612Z,410.6
2022-08-22T11:14:59.303Z,408.5
2022-08-22T11:16:43.032Z,409.4
2022-08-22T11:18:26.727Z,407.4
2022-08-22T11:20:10.424Z,404.9
2022-08-22T11:21:54.158Z,404.3
2022-08-22T11:23:37.845Z,404
2022-08-22T11:25:21.511Z,406.2
2022-08-22T11:27:05.236Z,408.4
2022-08-22T11:28:48.921Z,413.9
2022-08-22T11:30:32.636Z,421
2022-08-22T11:32:16.342Z,425.9
2022-08-22T11:34:00.095Z,428.1
2022-08-22T11:35:43.765Z,430.8
2022-08-22T11:37:27.464Z,429.6
2022-08-22T11:39:11.134Z,425.6
2022-08-22T11:40:54.885Z,420.4
2022-08-22T11:44:22.257Z,410.2
2022-08-22T11:46:05.953Z,406.8
2022-08-22T11:47:49.671Z,406.8
2022-08-22T11:49:33.350Z,405.2
2022-08-22T11:51:17.070Z,404.2
2022-08-22T11:53:00.772Z,408.5
2022-08-22T11:54:44.483Z,405.6
2022-08-22T11:56:28.160Z,405.3
2022-08-22T11:58:11.860Z,407.9
2022-08-22T11:59:55.573Z,405.8
2022-08-22T12:01:39.276Z,404
2022-08-22T12:03:22.977Z,406.9
2022-08-22T12:05:06.669Z,411.2
2022-08-22T12:06:50.468Z,415.2
2022-08-22T12:08:34.094Z,418.6
2022-08-22T12:10:17.784Z,422.2
2022-08-22T12:12:01.511Z,424.6
2022-08-22T12:13:45.197Z,428.9
2022-08-22T12:15:28.881Z,436
2022-08-22T12:17:12.593Z,441.4
2022-08-22T12:20:39.971Z,444.3
2022-08-22T12:25:51.078Z,445.7
2022-08-22T12:27:34.796Z,440.2
2022-08-22T12:29:18.493Z,435.6
2022-08-22T12:32:45.928Z,437.3
2022-08-22T12:34:29.607Z,438.6
2022-08-22T12:36:13.287Z,439.7
2022-08-22T12:37:57.032Z,441
2022-08-22T12:39:40.670Z,442
2022-08-22T12:41:24.393Z,441.3
2022-08-22T12:43:08.085Z,439.6
2022-08-22T12:44:51.823Z,434
2022-08-22T12:46:35.474Z,430.1
2022-08-22T12:48:19.182Z,428.2
2022-08-22T12:50:02.919Z,428.6
2022-08-22T12:51:46.593Z,426.3
2022-08-22T12:53:30.297Z,427.1
2022-08-22T12:55:14.016Z,424.4
2022-08-22T12:56:57.680Z,420.6
2022-08-22T12:58:41.389Z,418.6
2022-08-22T13:00:25.089Z,413.2
2022-08-22T13:02:08.818Z,415.5
2022-08-22T13:03:52.560Z,418.4
2022-08-22T13:05:36.245Z,416.2
2022-08-22T13:07:19.923Z,416.8
2022-08-22T13:09:03.612Z,416.5
2022-08-22T13:10:47.347Z,417.5
2022-08-22T13:12:31.006Z,416.8
2022-08-22T13:14:14.729Z,418.2
2022-08-22T13:15:58.424Z,416.3
2022-08-22T13:17:42.124Z,413.8
2022-08-22T13:19:25.860Z,410.1
2022-08-22T13:21:09.535Z,411.1
2022-08-22T13:22:53.205Z,411.6
2022-08-22T13:24:36.904Z,410.1
2022-08-22T13:26:20.601Z,409.1
2022-08-22T13:28:04.320Z,413.6
2022-08-22T13:29:48.023Z,423.6
2022-08-22T13:31:31.737Z,440.7
2022-08-22T13:33:15.421Z,441.3
2022-08-22T13:34:59.115Z,443.1
2022-08-22T13:36:42.815Z,447.1
2022-08-22T13:38:26.505Z,457.1
2022-08-22T13:40:10.194Z,461
2022-08-22T13:41:53.912Z,465
2022-08-22T13:43:37.639Z,472.2
2022-08-22T13:45:21.306Z,477
2022-08-22T13:47:05.003Z,478.7
2022-08-22T13:48:48.719Z,477.4
2022-08-22T13:50:32.408Z,480.6
2022-08-22T13:52:16.116Z,483.6
2022-08-22T13:53:59.823Z,485.3
2022-08-22T13:55:43.509Z,482.8
2022-08-22T13:57:27.237Z,480.8
2022-08-22T13:59:10.952Z,478.7
2022-08-22T14:00:54.639Z,476.4
2022-08-22T14:02:38.338Z,472
2022-08-22T14:04:22.046Z,473.8
2022-08-22T14:06:05.717Z,479.7
2022-08-22T14:07:49.434Z,487.2
2022-08-22T14:09:33.124Z,494.8
2022-08-22T14:11:16.842Z,504
2022-08-22T14:13:00.529Z,509.4
2022-08-22T14:14:44.214Z,509
2022-08-22T14:16:27.930Z,504
2022-08-22T14:18:11.644Z,497.2
2022-08-22T14:19:55.312Z,489.4
2022-08-22T14:21:39.011Z,481.1
2022-08-22T14:23:22.730Z,477.4
2022-08-22T14:25:06.438Z,474
2022-08-22T14:26:50.114Z,472.5
2022-08-22T14:28:33.800Z,471.7
2022-08-22T14:30:17.511Z,466.4
2022-08-22T14:32:01.209Z,461
2022-08-22T14:33:44.910Z,456
2022-08-22T14:35:28.608Z,452.3
2022-08-22T14:37:12.340Z,449.4
2022-08-22T14:38:56.033Z,451.1
2022-08-22T14:40:39.724Z,452.4
2022-08-22T14:42:23.459Z,449.6
2022-08-22T14:44:07.139Z,447.3
2022-08-22T14:45:50.855Z,446.6
2022-08-22T14:47:34.533Z,447
2022-08-22T14:49:18.238Z,447
2022-08-22T14:51:01.936Z,446.1
2022-08-22T14:52:45.682Z,445
2022-08-22T14:54:29.338Z,441.9
2022-08-22T14:56:13.037Z,436.5
2022-08-22T14:59:40.448Z,435.2
2022-08-22T15:01:24.144Z,436.8
2022-08-22T15:03:07.826Z,438.1
2022-08-22T15:04:51.547Z,438.4
2022-08-22T15:06:35.228Z,434.5
2022-08-22T15:08:18.934Z,434.2
2022-08-22T15:10:02.640Z,432.2
2022-08-22T15:11:46.330Z,431.7
2022-08-22T15:13:30.041Z,434.7
2022-08-22T15:15:13.728Z,434.3
2022-08-22T15:16:57.464Z,431.9
2022-08-22T15:18:41.149Z,430.2
2022-08-22T15:20:24.865Z,429.7
2022-08-22T15:22:08.543Z,430.1
2022-08-22T15:23:52.277Z,430.2
2022-08-22T15:25:35.956Z,426
2022-08-22T15:27:19.654Z,423.2
2022-08-22T15:29:03.403Z,421.5
2022-08-22T15:30:47.067Z,417.6
2022-08-22T15:32:30.765Z,418.5
2022-08-22T15:34:14.522Z,418.6
2022-08-22T15:35:58.190Z,416
2022-08-22T15:37:41.861Z,413.6
2022-08-22T15:39:25.575Z,411.7
2022-08-22T15:41:09.287Z,412.6
2022-08-22T15:42:53.012Z,411.3
2022-08-22T15:44:36.664Z,411.6
2022-08-22T15:46:20.366Z,412
2022-08-22T15:48:04.110Z,412.1
2022-08-22T15:49:47.779Z,418.8
2022-08-22T15:51:31.465Z,422.1
2022-08-22T15:53:15.164Z,420.5
2022-08-22T15:54:58.875Z,421.5
2022-08-22T15:56:42.579Z,422.4
2022-08-22T15:58:26.280Z,420
2022-08-22T16:00:09.995Z,421.6
2022-08-22T16:01:53.689Z,420.8
2022-08-22T16:03:37.366Z,417.7
2022-08-22T16:05:21.071Z,414
2022-08-22T16:07:04.762Z,410.6
2022-08-22T16:08:48.462Z,406.6
2022-08-22T16:10:32.219Z,405
2022-08-22T16:12:15.882Z,406.3
2022-08-22T16:13:59.582Z,410.9
2022-08-22T16:15:43.268Z,412.9
2022-08-22T16:17:26.971Z,411.4
2022-08-22T16:19:10.693Z,411.2
2022-08-22T16:20:54.372Z,408.8
2022-08-22T16:22:38.103Z,403.9
2022-08-22T16:24:21.779Z,402.6
2022-08-22T16:26:05.477Z,400.8
2022-08-22T16:27:49.201Z,398.5
2022-08-22T16:29:32.885Z,397.9
2022-08-22T16:31:16.604Z,397.4
2022-08-22T16:33:00.297Z,396.3
2022-08-22T16:34:43.991Z,393.8
2022-08-22T16:36:27.707Z,394.8
2022-08-22T16:38:11.399Z,392
2022-08-22T16:39:55.106Z,395.1
2022-08-22T16:41:38.800Z,397
2022-08-22T16:43:22.509Z,395.5
2022-08-22T16:45:06.196Z,396.5
2022-08-22T16:46:49.912Z,399
2022-08-22T16:48:33.586Z,400.7
2022-08-22T16:50:17.308Z,400.5
2022-08-22T16:52:01.039Z,400.8
2022-08-22T16:53:44.702Z,405.3
2022-08-22T16:55:28.392Z,405.6
2022-08-22T16:57:12.092Z,410.3
2022-08-22T16:58:55.783Z,411.6
2022-08-22T17:00:39.493Z,412.2
2022-08-22T17:02:23.190Z,410
2022-08-22T17:04:06.901Z,409.3
2022-08-22T17:05:50.588Z,409.8
2022-08-22T17:07:34.291Z,411.9
2022-08-22T17:09:17.986Z,407.8
2022-08-22T17:11:01.695Z,406
2022-08-22T17:12:45.409Z,404.5
2022-08-22T17:14:29.124Z,401.9
2022-08-22T17:16:12.810Z,399
2022-08-22T17:17:56.510Z,397.1
2022-08-22T17:19:40.217Z,397.5
2022-08-22T17:21:23.916Z,398.8
2022-08-22T17:23:07.631Z,399.3
2022-08-22T17:24:51.309Z,400.9
2022-08-22T17:26:35.000Z,401.4
2022-08-22T17:28:18.717Z,404.7
2022-08-22T17:30:02.433Z,406.5
2022-08-22T17:31:46.106Z,407.1
2022-08-22T17:33:29.808Z,412.6
2022-08-22T17:35:13.519Z,416.7
2022-08-22T17:36:57.233Z,418.4
2022-08-22T17:38:40.905Z,417.7
2022-08-22T17:40:24.598Z,417.7
2022-08-22T17:42:08.315Z,419.1
2022-08-22T17:43:52.015Z,419.8
2022-08-22T17:45:35.711Z,422.2
2022-08-22T17:47:19.415Z,425
2022-08-22T17:49:03.142Z,425.1
2022-08-22T17:50:46.814Z,425.1
2022-08-22T17:52:30.522Z,426.8
2022-08-22T17:54:14.224Z,428.5
2022-08-22T17:55:57.911Z,428.9
2022-08-22T17:57:41.626Z,429.7
2022-08-22T17:59:25.325Z,430
2022-08-22T18:01:09.028Z,428.6
2022-08-22T18:02:52.729Z,422.8
2022-08-22T18:04:36.443Z,417.5
2022-08-22T18:06:20.149Z,419.6
2022-08-22T18:08:03.827Z,421.9
2022-08-22T18:09:47.557Z,423.9
2022-08-22T18:11:31.232Z,423.5
2022-08-22T18:13:15.146Z,422.1
2022-08-22T18:14:58.636Z,422.8
2022-08-22T18:16:42.344Z,425.7
2022-08-22T18:18:26.054Z,427.4
2022-08-22T18:20:09.750Z,427.2
2022-08-22T18:21:53.425Z,426
2022-08-22T18:23:37.163Z,424.1
2022-08-22T18:25:20.831Z,425.3
2022-08-22T18:27:04.550Z,427.8
2022-08-22T18:28:48.237Z,429.6
2022-08-22T18:30:31.937Z,432
2022-08-22T18:32:15.628Z,435.4
2022-08-22T18:33:59.338Z,434.8
2022-08-22T18:35:43.024Z,437.8
2022-08-22T18:37:26.733Z,438
2022-08-22T18:39:10.446Z,438.7
2022-08-22T18:40:54.132Z,442.4
2022-08-22T18:42:37.842Z,441.8
2022-08-22T18:44:21.543Z,439.1
2022-08-22T18:46:05.247Z,436.7
2022-08-22T18:47:48.944Z,435.1
2022-08-22T18:49:32.654Z,433.4
2022-08-22T18:51:16.361Z,431
2022-08-22T18:53:00.055Z,431.7
2022-08-22T18:54:43.762Z,435.2
2022-08-22T18:56:27.472Z,436.5
2022-08-22T18:58:11.166Z,437.6
2022-08-22T18:59:54.875Z,440
2022-08-22T19:01:38.565Z,443.3
2022-08-22T19:03:22.286Z,444.4
2022-08-22T19:05:05.975Z,444.8
2022-08-22T19:06:49.675Z,442.1
2022-08-22T19:08:33.370Z,438
2022-08-22T19:10:17.092Z,433.5
2022-08-22T19:12:00.780Z,430.6
2022-08-22T19:13:44.471Z,432.3
2022-08-22T19:15:28.201Z,432.8
2022-08-22T19:17:11.892Z,432.5
2022-08-22T19:18:55.598Z,435.7
2022-08-22T19:20:39.285Z,435
2022-08-22T19:22:23.005Z,436.2
2022-08-22T19:24:06.707Z,435.3
2022-08-22T19:25:50.417Z,436.8
2022-08-22T19:27:34.101Z,437.1
2022-08-22T19:29:17.816Z,437.9
2022-08-22T19:31:01.521Z,438.7
2022-08-22T19:32:45.225Z,440.7
2022-08-22T19:34:28.923Z,441.7
2022-08-22T19:36:12.629Z,442.1
2022-08-22T19:37:56.321Z,446
2022-08-22T19:39:40.039Z,446.6
2022-08-22T19:41:23.729Z,446.1
2022-08-22T19:43:07.434Z,443
2022-08-22T19:44:51.132Z,437.3
2022-08-22T19:46:34.831Z,433.8
2022-08-22T19:48:18.531Z,435.3
2022-08-22T19:50:02.228Z,437
2022-08-22T19:51:45.937Z,435.9
2022-08-22T19:53:29.629Z,431.5
2022-08-22T19:55:13.342Z,432.2
2022-08-22T19:56:57.052Z,432.2
2022-08-22T19:58:40.737Z,430.9
2022-08-22T20:00:24.454Z,431.2
2022-08-22T20:02:08.145Z,431.1
2022-08-22T20:03:51.863Z,431
2022-08-22T20:05:35.569Z,432
2022-08-22T20:07:19.263Z,435
2022-08-22T20:09:02.966Z,436.3
2022-08-22T20:10:46.673Z,438.7
2022-08-22T20:12:30.385Z,437.1
2022-08-22T20:14:14.083Z,436.2
2022-08-22T20:15:57.791Z,435.2
2022-08-22T20:17:41.480Z,437.2
2022-08-22T20:19:25.179Z,438.8
2022-08-22T20:21:08.904Z,437.5
2022-08-22T20:22:52.603Z,436.2
2022-08-22T20:24:36.274Z,436.9
2022-08-22T20:26:19.986Z,436
2022-08-22T20:28:03.685Z,434.3
2022-08-22T20:29:47.407Z,433.8
2022-08-22T20:31:31.074Z,432.9
2022-08-22T20:33:14.774Z,432.2
2022-08-22T20:34:58.478Z,430.4
2022-08-22T20:36:42.193Z,432.5
2022-08-22T20:38:25.932Z,431.4
2022-08-22T20:40:09.608Z,432.1
2022-08-22T20:41:53.323Z,436.1
2022-08-22T20:43:37.000Z,441.5
2022-08-22T20:45:20.715Z,444
2022-08-22T20:47:04.402Z,448.1
2022-08-22T20:48:48.114Z,449.9
2022-08-22T20:50:31.816Z,447.2
2022-08-22T20:52:15.526Z,445
2022-08-22T20:53:59.202Z,446
2022-08-22T20:55:42.903Z,447
2022-08-22T20:57:26.604Z,448.7
2022-08-22T20:59:10.337Z,448.2
2022-08-22T21:00:54.017Z,447.2
2022-08-22T21:02:37.725Z,446.8
2022-08-22T21:04:21.432Z,448.7
2022-08-22T21:06:05.123Z,448.3
2022-08-22T21:07:48.815Z,448.7
2022-08-22T21:09:32.521Z,455.7
2022-08-22T21:11:16.222Z,460.2
2022-08-22T21:12:59.933Z,459.7
2022-08-22T21:14:43.628Z,461.1
2022-08-22T21:16:27.325Z,458
2022-08-22T21:18:11.029Z,458.7
2022-08-22T21:19:54.730Z,460.3
2022-08-22T21:21:38.444Z,459.5
2022-08-22T21:23:22.123Z,458.2
2022-08-22T21:25:05.832Z,457.8
2022-08-22T21:26:49.529Z,455.6
2022-08-22T21:28:33.246Z,453.9
2022-08-22T21:30:16.944Z,451.4
2022-08-22T21:32:00.646Z,448.3
2022-08-22T21:33:44.350Z,447.5
2022-08-22T21:35:28.064Z,445.7
2022-08-22T21:37:11.809Z,446.4
2022-08-22T21:38:55.451Z,444.5
2022-08-22T21:40:39.163Z,447.3
2022-08-22T21:42:22.865Z,449.1
2022-08-22T21:44:06.564Z,448.2
2022-08-22T21:45:50.254Z,449.2
2022-08-22T21:47:33.978Z,450.2
2022-08-22T21:49:17.655Z,452.1
2022-08-22T21:51:01.372Z,453.1
2022-08-22T21:52:45.066Z,453.5
2022-08-22T21:54:28.771Z,454.1
2022-08-22T21:56:12.482Z,455.8
2022-08-22T21:57:56.192Z,456.4
2022-08-22T21:59:39.888Z,457.6
2022-08-22T22:01:23.565Z,459.5
2022-08-22T22:03:07.272Z,457.9
2022-08-22T22:04:50.980Z,456.9
2022-08-22T22:06:34.685Z,456.9
2022-08-22T22:08:18.370Z,456.5
2022-08-22T22:10:02.078Z,457
2022-08-22T22:11:45.792Z,461
2022-08-22T22:13:29.484Z,460
2022-08-22T22:15:13.187Z,458.8
2022-08-22T22:16:56.879Z,457.6
2022-08-22T22:18:40.613Z,458
2022-08-22T22:20:24.307Z,458.4
2022-08-22T22:22:07.997Z,460.2
2022-08-22T22:23:51.697Z,460.3
2022-08-22T22:25:35.392Z,459
2022-08-22T22:27:19.102Z,457.6
2022-08-22T22:29:02.811Z,457.6
2022-08-22T22:30:46.489Z,455.7
2022-08-22T22:32:30.210Z,453.3
2022-08-22T22:34:13.911Z,452.1
2022-08-22T22:35:57.609Z,452.3
2022-08-22T22:37:41.303Z,452.6
2022-08-22T22:39:25.022Z,451
2022-08-22T22:41:08.699Z,453.6